Time;durP1;ratioP1;P1;durP2;ratioP2;P2;SDS_P1;SDS_P2;PMS_P1;PMS_P2;Temp;Humidity;BMP_temperature;BMP_pressure;BME280_temperature;BME280_humidity;BME280_pressure;Samples;Min_cycle;Max_cycle;Signal;HPM_P1;HPM_P2
2023/08/31 00:00:01;;;;;;;5.05;3.97;;;;;;;10.03;100.00;100775.25;5019970;28;20087;-66
2023/08/31 00:02:26;;;;;;;7.30;3.90;;;;;;;10.09;100.00;100769.94;5019867;28;20044;-66
2023/08/31 00:04:55;;;;;;;7.28;4.03;;;;;;;10.08;100.00;100777.81;5024157;28;20036;-66
2023/08/31 00:07:21;;;;;;;6.22;4.43;;;;;;;10.02;100.00;100784.84;5040087;28;20040;-66
2023/08/31 00:09:47;;;;;;;5.18;4.32;;;;;;;10.02;100.00;100771.75;5055112;28;20035;-66
2023/08/31 00:12:13;;;;;;;5.47;4.50;;;;;;;9.96;100.00;100769.19;5038308;28;20036;-66
2023/08/31 00:14:38;;;;;;;6.22;4.32;;;;;;;9.99;100.00;100777.03;5027426;28;20032;-66
2023/08/31 00:17:05;;;;;;;5.75;4.50;;;;;;;10.01;100.00;100783.13;5028005;28;20078;-66
2023/08/31 00:19:30;;;;;;;6.00;4.63;;;;;;;9.87;100.00;100770.16;5024224;28;20410;-66
2023/08/31 00:21:55;;;;;;;5.28;4.60;;;;;;;9.94;100.00;100770.97;5018123;28;20120;-66
2023/08/31 00:24:21;;;;;;;5.97;4.82;;;;;;;9.94;100.00;100776.22;5023975;28;20024;-66
2023/08/31 00:26:50;;;;;;;9.80;5.28;;;;;;;9.93;100.00;100777.09;5027985;28;20036;-66
2023/08/31 00:29:16;;;;;;;7.55;5.75;;;;;;;9.87;100.00;100769.31;5029963;28;20037;-66
2023/08/31 00:31:42;;;;;;;8.05;6.22;;;;;;;9.89;100.00;100767.53;5055544;28;20082;-66
2023/08/31 00:34:07;;;;;;;6.70;6.00;;;;;;;9.88;100.00;100765.78;5013300;28;20032;-66
2023/08/31 00:36:33;;;;;;;8.05;6.82;;;;;;;9.90;100.00;100769.28;5032887;28;20036;-66
2023/08/31 00:39:10;;;;;;;8.70;7.68;;;;;;;9.87;100.00;100769.31;5056705;28;20055;-66
2023/08/31 00:41:36;;;;;;;9.60;6.82;;;;;;;9.90;100.00;100769.28;5055847;28;20519;-67
2023/08/31 00:44:04;;;;;;;7.82;7.00;;;;;;;9.84;100.00;100771.94;5039981;28;20028;-66
2023/08/31 00:46:31;;;;;;;10.02;7.90;;;;;;;9.86;100.00;100773.66;5051199;28;20029;-69
2023/08/31 00:48:57;;;;;;;8.98;8.00;;;;;;;9.88;100.00;100774.53;5023827;28;20457;-68
2023/08/31 00:51:23;;;;;;;10.18;8.85;;;;;;;9.81;100.00;100765.00;5039159;28;20397;-69
2023/08/31 00:53:49;;;;;;;9.57;8.63;;;;;;;9.82;100.00;100768.47;5039339;28;20029;-69
2023/08/31 00:56:17;;;;;;;11.65;9.45;;;;;;;9.80;100.00;100762.41;5044854;28;20065;-68
2023/08/31 00:58:42;;;;;;;11.85;9.40;;;;;;;9.80;100.00;100757.16;5038245;28;20032;-69
2023/08/31 01:01:18;;;;;;;13.20;10.32;;;;;;;9.80;100.00;100760.63;5037603;28;20408;-69
2023/08/31 01:04:03;;;;;;;11.85;9.85;;;;;;;9.80;100.00;100762.41;5052691;28;20048;-69
2023/08/31 01:06:59;;;;;;;11.05;9.95;;;;;;;9.79;100.00;100769.38;5053806;28;20493;-69
2023/08/31 01:09:43;;;;;;;11.02;9.90;;;;;;;9.76;100.00;100769.41;5072780;28;20025;-68
2023/08/31 01:12:29;;;;;;;12.52;10.77;;;;;;;9.78;100.00;100753.69;5053907;28;20081;-68
2023/08/31 01:15:07;;;;;;;15.85;10.43;;;;;;;9.71;100.00;100764.22;5044866;28;20313;-69
2023/08/31 01:17:42;;;;;;;12.68;11.35;;;;;;;9.70;100.00;100762.47;5048091;28;20020;-69
2023/08/31 01:20:11;;;;;;;13.73;11.45;;;;;;;9.67;100.00;100761.66;5044604;28;20041;-69
2023/08/31 01:22:43;;;;;;;13.43;11.57;;;;;;;9.74;100.00;100767.66;5034908;28;20396;-68
2023/08/31 01:25:10;;;;;;;13.15;11.48;;;;;;;9.72;100.00;100759.84;5067520;28;20027;-69
2023/08/31 01:27:39;;;;;;;13.52;11.88;;;;;;;9.76;100.00;100765.94;5052468;28;20025;-68
2023/08/31 01:30:06;;;;;;;13.32;11.88;;;;;;;9.73;100.00;100761.59;5038112;28;20127;-68
2023/08/31 01:32:31;;;;;;;12.95;11.30;;;;;;;9.74;100.00;100763.31;5038557;28;20025;-69
2023/08/31 01:35:01;;;;;;;13.30;12.00;;;;;;;9.74;100.00;100775.53;5036114;28;20032;-68
2023/08/31 01:37:34;;;;;;;15.00;12.73;;;;;;;9.73;100.00;100779.91;5055062;28;20025;-69
2023/08/31 01:40:10;;;;;;;13.95;11.73;;;;;;;9.78;100.00;100782.47;5053473;28;20028;-69
2023/08/31 01:42:36;;;;;;;13.25;11.30;;;;;;;9.78;100.00;100787.69;5044769;28;20075;-69
2023/08/31 01:45:04;;;;;;;14.32;12.32;;;;;;;9.75;100.00;100785.13;5023659;28;20457;-68
2023/08/31 01:47:30;;;;;;;12.77;11.27;;;;;;;9.80;100.00;100783.34;5019459;28;20035;-69
2023/08/31 01:49:56;;;;;;;12.65;11.35;;;;;;;9.81;100.00;100787.66;5052610;28;20029;-71
2023/08/31 01:52:21;;;;;;;12.30;11.05;;;;;;;9.80;100.00;100784.19;5037081;28;20124;-69
2023/08/31 01:54:47;;;;;;;13.25;10.90;;;;;;;9.81;100.00;100785.94;5044721;28;20135;-69
2023/08/31 01:57:13;;;;;;;12.00;10.90;;;;;;;9.77;100.00;100789.47;5017400;28;20044;-69
2023/08/31 01:59:38;;;;;;;12.77;11.48;;;;;;;9.76;100.00;100794.72;5033602;28;20017;-69
2023/08/31 02:02:04;;;;;;;12.23;10.93;;;;;;;9.75;100.00;100779.88;5021745;28;20020;-68
2023/08/31 02:04:29;;;;;;;12.25;10.93;;;;;;;9.76;100.00;100779.88;5024253;28;20478;-69
2023/08/31 02:06:55;;;;;;;12.90;11.20;;;;;;;9.80;100.00;100772.88;5019346;28;20043;-69
2023/08/31 02:09:23;;;;;;;14.45;12.40;;;;;;;9.80;100.00;100785.97;5021901;28;20101;-68
2023/08/31 02:11:48;;;;;;;13.60;12.00;;;;;;;9.84;100.00;100780.66;5051652;28;20039;-69
2023/08/31 02:14:14;;;;;;;13.18;11.88;;;;;;;9.84;100.00;100780.66;5017929;28;20021;-69
2023/08/31 02:16:39;;;;;;;13.05;11.75;;;;;;;9.89;100.00;100783.22;5019249;28;20037;-69
2023/08/31 02:19:05;;;;;;;14.07;12.65;;;;;;;9.90;100.00;100784.97;5038125;28;20573;-69
2023/08/31 02:21:30;;;;;;;15.35;12.70;;;;;;;9.95;100.00;100780.53;5021494;28;20484;-68
2023/08/31 02:23:55;;;;;;;14.15;12.75;;;;;;;9.95;100.00;100777.06;5038039;28;20028;-69
2023/08/31 02:26:21;;;;;;;14.95;13.43;;;;;;;9.99;100.00;100784.88;5022057;28;20388;-69
2023/08/31 02:28:47;;;;;;;16.05;13.95;;;;;;;9.97;100.00;100776.19;5053305;28;20043;-69
2023/08/31 02:31:14;;;;;;;14.80;13.40;;;;;;;10.01;100.00;100783.13;5020955;28;20480;-68
2023/08/31 02:33:40;;;;;;;16.05;14.02;;;;;;;10.04;100.00;100770.00;5037950;28;20130;-68
2023/08/31 02:36:07;;;;;;;17.10;14.43;;;;;;;10.07;100.00;100774.34;5037549;28;20539;-68
2023/08/31 02:38:33;;;;;;;15.82;14.10;;;;;;;10.09;100.00;100759.47;5037089;28;20045;-68
2023/08/31 02:40:58;;;;;;;15.80;14.20;;;;;;;10.08;100.00;100767.34;5020091;28;20043;-68
2023/08/31 02:43:25;;;;;;;15.15;13.65;;;;;;;10.13;100.00;100773.38;5036187;28;20039;-69
2023/08/31 02:45:59;;;;;;;15.77;14.23;;;;;;;10.16;100.00;100781.22;5036553;28;20035;-69
2023/08/31 02:48:25;;;;;;;16.45;14.75;;;;;;;10.19;100.00;100771.56;5054462;28;20416;-69
2023/08/31 02:50:50;;;;;;;16.25;14.75;;;;;;;10.18;100.00;100780.28;5018815;28;20036;-69
2023/08/31 02:53:16;;;;;;;16.52;14.70;;;;;;;10.22;100.00;100782.00;5023315;28;20033;-69
2023/08/31 02:55:42;;;;;;;15.82;14.15;;;;;;;10.20;100.00;100785.50;5030306;28;20119;-69
2023/08/31 02:58:07;;;;;;;15.38;13.50;;;;;;;10.22;100.00;100786.38;5029171;28;20110;-69
2023/08/31 03:00:33;;;;;;;15.07;13.48;;;;;;;10.23;100.00;100782.88;5013427;28;20024;-69
2023/08/31 03:02:58;;;;;;;16.17;14.52;;;;;;;10.17;100.00;100777.69;5036355;28;20407;-69
2023/08/31 03:05:24;;;;;;;16.83;15.13;;;;;;;10.17;100.00;100778.59;5021234;28;20028;-69
2023/08/31 03:07:49;;;;;;;16.98;15.27;;;;;;;10.16;100.00;100781.22;5049227;28;20446;-69
2023/08/31 03:10:15;;;;;;;16.48;14.93;;;;;;;10.15;100.00;100789.97;5019355;28;20054;-69
2023/08/31 03:12:40;;;;;;;17.75;16.05;;;;;;;10.13;100.00;100792.59;5019709;28;20032;-69
2023/08/31 03:15:07;;;;;;;18.35;16.52;;;;;;;10.13;100.00;100784.75;5032815;28;20529;-69
2023/08/31 03:17:32;;;;;;;17.52;15.65;;;;;;;10.14;100.00;100781.25;5037555;28;20051;-69
2023/08/31 03:19:57;;;;;;;18.60;16.52;;;;;;;10.09;100.00;100785.66;5011333;28;20032;-68
2023/08/31 03:22:23;;;;;;;17.95;16.15;;;;;;;10.01;100.00;100788.34;5050384;28;20111;-69
2023/08/31 03:24:48;;;;;;;17.80;16.00;;;;;;;10.01;100.00;100784.84;5020895;28;20023;-69
2023/08/31 03:27:15;;;;;;;20.55;18.55;;;;;;;9.98;100.00;100788.38;5036913;28;20059;-69
2023/08/31 03:29:41;;;;;;;21.92;19.73;;;;;;;9.92;100.00;100782.34;5020269;28;20033;-68
2023/08/31 03:32:06;;;;;;;22.30;20.23;;;;;;;9.94;100.00;100786.69;5036826;28;20037;-69
2023/08/31 03:34:32;;;;;;;27.42;24.27;;;;;;;9.91;100.00;100789.31;5017426;28;20476;-69
2023/08/31 03:36:58;;;;;;;27.33;24.67;;;;;;;9.84;100.00;100791.13;5037040;28;20115;-69
2023/08/31 03:39:25;;;;;;;29.58;26.50;;;;;;;9.80;100.00;100788.56;5052640;28;20049;-69
2023/08/31 03:41:51;;;;;;;30.27;27.15;;;;;;;9.79;100.00;100787.69;5050457;28;20218;-69
2023/08/31 03:44:16;;;;;;;30.17;26.00;;;;;;;9.77;100.00;100783.34;5038526;28;20124;-69
2023/08/31 03:46:42;;;;;;;27.73;24.92;;;;;;;9.67;100.00;100778.22;5036931;28;20039;-68
2023/08/31 03:49:08;;;;;;;29.20;25.95;;;;;;;9.70;100.00;100783.41;5033871;28;20033;-69
2023/08/31 03:51:33;;;;;;;30.23;25.42;;;;;;;9.61;100.00;100786.13;5049674;28;20145;-68
2023/08/31 03:53:59;;;;;;;28.33;25.58;;;;;;;9.61;100.00;100782.63;5017737;28;20043;-69
2023/08/31 03:56:24;;;;;;;29.50;26.38;;;;;;;9.58;100.00;100793.09;5020507;28;20021;-69
2023/08/31 03:58:50;;;;;;;29.88;26.88;;;;;;;9.57;100.00;100789.63;5034836;28;20062;-69
2023/08/31 04:01:15;;;;;;;29.65;26.90;;;;;;;9.50;100.00;100795.81;5035516;28;20043;-69
2023/08/31 04:03:44;;;;;;;27.67;24.77;;;;;;;9.50;100.00;100795.81;5017655;28;20023;-69
2023/08/31 04:06:10;;;;;;;27.55;24.75;;;;;;;9.51;100.00;100797.50;5034978;28;20124;-69
2023/08/31 04:08:35;;;;;;;27.85;25.25;;;;;;;9.47;100.00;100795.81;5051231;28;20555;-69
2023/08/31 04:11:01;;;;;;;28.10;25.33;;;;;;;9.48;100.00;100795.81;5020281;28;20476;-69
2023/08/31 04:13:26;;;;;;;27.80;25.10;;;;;;;9.44;100.00;100808.91;5023231;28;20384;-69
2023/08/31 04:15:55;;;;;;;28.38;25.63;;;;;;;9.47;100.00;100801.91;5020453;28;20078;-69
2023/08/31 04:18:21;;;;;;;27.10;24.38;;;;;;;9.36;100.00;100804.59;5008368;28;20396;-69
2023/08/31 04:20:51;;;;;;;26.63;24.02;;;;;;;9.42;100.00;100813.28;5034469;28;20427;-69
2023/08/31 04:23:17;;;;;;;25.77;23.13;;;;;;;9.45;100.00;100819.38;5040482;28;20062;-68
2023/08/31 04:25:43;;;;;;;25.38;22.83;;;;;;;9.41;100.00;100811.53;5039499;28;20024;-69
2023/08/31 04:28:09;;;;;;;26.85;24.15;;;;;;;9.41;100.00;100811.53;5040430;28;20094;-69
2023/08/31 04:30:34;;;;;;;26.10;23.52;;;;;;;9.38;100.00;100812.47;5039711;28;20083;-69
2023/08/31 04:33:00;;;;;;;25.45;22.95;;;;;;;9.39;100.00;100814.19;5021412;28;20476;-69
2023/08/31 04:35:25;;;;;;;25.15;22.65;;;;;;;9.33;100.00;100816.84;5019805;28;20032;-69
2023/08/31 04:37:50;;;;;;;24.80;22.35;;;;;;;9.28;100.00;100816.88;5020051;28;20021;-69
2023/08/31 04:40:16;;;;;;;26.50;23.02;;;;;;;9.36;100.00;100819.44;5049808;28;20059;-70
2023/08/31 04:42:42;;;;;;;26.67;24.05;;;;;;;9.33;100.00;100817.69;5037894;28;20049;-69
2023/08/31 04:45:08;;;;;;;26.67;23.98;;;;;;;9.33;100.00;100820.31;5036305;28;20060;-69
2023/08/31 04:47:34;;;;;;;28.27;23.88;;;;;;;9.39;100.00;100818.56;5057121;28;20067;-69
2023/08/31 04:49:59;;;;;;;28.50;25.67;;;;;;;9.33;100.00;100817.69;5020359;28;20488;-68
2023/08/31 04:52:25;;;;;;;27.80;25.05;;;;;;;9.33;100.00;100820.31;5043930;28;20369;-69
2023/08/31 04:54:50;;;;;;;27.77;24.98;;;;;;;9.41;100.00;100827.25;5056253;28;20074;-69
2023/08/31 04:57:16;;;;;;;27.85;24.98;;;;;;;9.43;100.00;100826.34;5033174;28;20036;-69
2023/08/31 04:59:41;;;;;;;27.95;25.10;;;;;;;9.39;100.00;100824.63;5030995;28;20142;-68
2023/08/31 05:02:06;;;;;;;26.38;23.67;;;;;;;9.47;100.00;100833.31;5016266;28;20041;-69
2023/08/31 05:04:32;;;;;;;26.17;23.58;;;;;;;9.47;100.00;100835.06;5019750;28;20036;-69
2023/08/31 05:06:57;;;;;;;27.67;24.63;;;;;;;9.52;100.00;100835.88;5022613;28;20028;-69
2023/08/31 05:09:24;;;;;;;24.98;22.48;;;;;;;9.52;100.00;100844.63;5034511;28;20033;-69
2023/08/31 05:11:50;;;;;;;25.02;22.42;;;;;;;9.65;100.00;100836.66;5051206;28;20038;-69
2023/08/31 05:14:15;;;;;;;23.65;21.35;;;;;;;9.63;100.00;100844.53;5029812;28;20116;-69
2023/08/31 05:16:40;;;;;;;22.05;20.00;;;;;;;9.77;100.00;100856.63;5030049;28;20105;-69
2023/08/31 05:19:06;;;;;;;22.25;20.10;;;;;;;9.86;100.00;100856.56;5034155;28;20034;-69
2023/08/31 05:21:31;;;;;;;20.95;18.90;;;;;;;9.99;100.00;100854.69;5039675;28;20028;-69
2023/08/31 05:23:57;;;;;;;22.38;19.58;;;;;;;10.12;100.00;100858.94;5022201;28;20036;-69
2023/08/31 05:26:23;;;;;;;20.48;17.95;;;;;;;10.31;100.00;100862.22;5056115;28;20035;-69
2023/08/31 05:28:48;;;;;;;19.95;17.13;;;;;;;10.50;100.00;100869.91;5054585;28;20028;-69
2023/08/31 05:31:14;;;;;;;18.02;16.33;;;;;;;10.52;100.00;100871.66;5134262;22;20023;-67
2023/08/31 05:33:39;;;;;;;17.27;15.55;;;;;;;10.58;100.00;100873.34;5047257;23;20185;-68
2023/08/31 05:36:05;;;;;;;15.85;14.23;;;;;;;10.57;100.00;100885.56;5071860;22;20046;-67
2023/08/31 05:38:30;;;;;;;15.88;14.25;;;;;;;10.53;100.00;100882.97;5208443;22;20043;-67
2023/08/31 05:43:31;;;;;;;13.93;12.60;;;;;;;10.52;100.00;100895.22;5106031;22;20122;-69
2023/08/31 05:45:57;;;;;;;14.82;13.25;;;;;;;10.62;100.00;100885.53;5026573;28;20025;-69
2023/08/31 05:50:50;;;;;;;12.75;11.48;;;;;;;11.01;100.00;100891.16;5174526;22;20063;-67
2023/08/31 05:55:50;;;;;;;12.45;11.23;;;;;;;11.19;100.00;100889.19;5411029;22;20399;-66
2023/08/31 06:00:44;;;;;;;10.68;9.50;;;;;;;11.34;100.00;100893.38;5267425;22;20044;-67
2023/08/31 06:03:10;;;;;;;10.82;9.68;;;;;;;11.54;100.00;100887.84;5058817;28;20047;-67
2023/08/31 06:05:35;;;;;;;10.90;8.57;;;;;;;11.79;100.00;100890.94;5167245;23;21289;-67
2023/08/31 06:08:01;;;;;;;14.43;8.90;;;;;;;12.58;100.00;100895.69;5034234;28;20037;-69
2023/08/31 06:10:26;;;;;;;11.73;7.10;;;;;;;13.75;98.29;100897.63;5022486;23;20132;-69
2023/08/31 06:12:52;;;;;;;8.38;6.30;;;;;;;15.44;87.22;100901.81;4993497;28;20022;-69
2023/08/31 06:15:17;;;;;;;8.32;5.75;;;;;;;16.93;81.98;100903.00;5201534;23;20515;-67
2023/08/31 06:17:43;;;;;;;6.55;5.30;;;;;;;16.88;78.80;100908.47;5074801;23;20528;-67
2023/08/31 06:20:09;;;;;;;6.47;5.22;;;;;;;16.01;79.34;100909.75;5052765;23;20056;-67
2023/08/31 06:22:35;;;;;;;6.75;5.45;;;;;;;15.38;81.62;100909.94;5031818;28;20068;-66
2023/08/31 06:25:02;;;;;;;7.00;5.40;;;;;;;15.88;82.59;100909.28;5027719;28;20431;-67
2023/08/31 06:27:28;;;;;;;7.63;4.90;;;;;;;16.87;78.44;100905.88;5014743;28;20091;-67
2023/08/31 06:29:53;;;;;;;7.00;4.90;;;;;;;17.02;76.53;100917.69;5014228;28;20033;-67
2023/08/31 06:32:19;;;;;;;6.88;4.90;;;;;;;16.44;76.87;100916.19;5041400;28;20029;-67
2023/08/31 06:34:45;;;;;;;8.60;5.32;;;;;;;15.61;80.41;100921.56;5023365;28;20038;-67
2023/08/31 06:37:11;;;;;;;9.07;5.45;;;;;;;15.38;81.35;100920.50;5029244;28;20035;-67
2023/08/31 06:39:37;;;;;;;7.20;5.90;;;;;;;16.88;81.10;100920.84;4996784;28;20033;-67
2023/08/31 06:42:03;;;;;;;6.10;5.20;;;;;;;19.06;71.99;100918.09;5030667;28;20048;-67
2023/08/31 06:44:30;;;;;;;5.82;4.75;;;;;;;20.87;66.63;100927.84;5017963;28;20026;-67
2023/08/31 06:46:55;;;;;;;6.45;5.25;;;;;;;20.48;63.16;100926.31;5013497;28;20500;-67
2023/08/31 06:49:23;;;;;;;8.00;4.45;;;;;;;20.94;63.26;100929.25;4994088;28;20079;-67
2023/08/31 06:51:48;;;;;;;7.93;4.40;;;;;;;21.67;65.09;100931.47;5032713;28;20024;-67
2023/08/31 06:54:14;;;;;;;5.07;4.18;;;;;;;22.33;60.78;100934.81;5024937;28;20120;-67
2023/08/31 06:56:39;;;;;;;5.63;4.03;;;;;;;23.11;58.11;100930.97;5013269;28;20029;-67
2023/08/31 06:59:04;;;;;;;5.35;4.43;;;;;;;23.98;54.27;100942.34;5025629;28;20065;-67
2023/08/31 07:01:32;;;;;;;5.95;4.13;;;;;;;25.41;53.51;100942.31;4998348;28;20092;-69
2023/08/31 07:03:58;;;;;;;5.60;3.70;;;;;;;25.71;47.51;100941.88;5041374;28;20037;-71
2023/08/31 07:06:23;;;;;;;4.88;3.50;;;;;;;26.18;46.88;100941.97;5027558;28;20047;-70
2023/08/31 07:08:49;;;;;;;5.72;3.40;;;;;;;26.48;47.95;100947.78;5012277;28;20092;-70
2023/08/31 07:11:15;;;;;;;4.95;3.33;;;;;;;25.67;48.63;100950.25;5012570;28;20030;-67
2023/08/31 07:13:41;;;;;;;6.60;3.63;;;;;;;24.43;49.47;100960.75;5012020;28;20117;-69
2023/08/31 07:16:06;;;;;;;6.78;3.40;;;;;;;25.12;48.22;100955.09;5002177;28;20033;-70
2023/08/31 07:18:32;;;;;;;3.90;3.10;;;;;;;26.07;47.18;100950.84;5035303;28;20457;-67
2023/08/31 07:20:57;;;;;;;6.15;3.20;;;;;;;25.76;47.55;100950.44;5038032;28;20049;-67
2023/08/31 07:23:23;;;;;;;5.43;3.55;;;;;;;24.62;51.13;100958.53;5012956;28;20040;-67
2023/08/31 07:25:48;;;;;;;4.70;3.33;;;;;;;23.25;51.58;100952.34;5028581;28;20311;-67
2023/08/31 07:28:14;;;;;;;5.53;3.80;;;;;;;23.13;54.48;100959.34;5024208;28;20020;-67
2023/08/31 07:30:40;;;;;;;5.82;3.92;;;;;;;23.61;54.74;100952.75;5012146;28;20144;-68
2023/08/31 07:33:06;;;;;;;7.28;3.80;;;;;;;23.16;54.73;100958.28;5047149;28;20049;-67
2023/08/31 07:35:32;;;;;;;4.88;3.55;;;;;;;23.10;55.51;100953.28;4993251;28;20044;-67
2023/08/31 07:37:57;;;;;;;7.35;3.67;;;;;;;22.71;56.84;100958.31;5029147;28;20037;-68
2023/08/31 07:40:23;;;;;;;7.05;3.70;;;;;;;22.18;57.88;100957.88;5014038;28;20033;-68
2023/08/31 07:42:50;;;;;;;7.00;4.00;;;;;;;21.98;59.94;100948.41;4995147;28;20111;-68
2023/08/31 07:45:15;;;;;;;6.03;4.30;;;;;;;21.40;60.45;100957.84;5028555;28;20540;-68
2023/08/31 07:47:40;;;;;;;6.65;3.85;;;;;;;21.11;62.90;100949.66;5025836;28;20175;-68
2023/08/31 07:50:06;;;;;;;6.78;3.75;;;;;;;20.77;60.82;100957.66;5031220;28;20036;-68
2023/08/31 07:52:32;;;;;;;6.78;4.00;;;;;;;20.56;64.85;100956.09;5032801;28;20032;-68
2023/08/31 07:54:57;;;;;;;9.05;4.28;;;;;;;20.48;65.32;100960.94;5013350;28;20036;-68
2023/08/31 07:57:23;;;;;;;8.13;4.78;;;;;;;20.27;65.50;100961.09;5044145;28;20036;-68
2023/08/31 07:59:48;;;;;;;6.95;4.25;;;;;;;20.07;65.58;100952.31;5049885;28;20029;-68
2023/08/31 08:02:16;;;;;;;8.48;4.55;;;;;;;20.11;67.35;100962.78;5034695;28;20060;-68
2023/08/31 08:04:41;;;;;;;6.85;4.57;;;;;;;20.17;67.90;100962.47;5019530;28;20380;-68
2023/08/31 08:07:06;;;;;;;5.70;4.75;;;;;;;19.87;68.42;100960.41;5029669;28;20024;-68
2023/08/31 08:09:32;;;;;;;6.57;4.82;;;;;;;19.49;68.77;100961.25;4981964;28;20036;-68
2023/08/31 08:11:57;;;;;;;9.32;5.10;;;;;;;19.70;68.84;100959.38;5025851;28;20037;-68
2023/08/31 08:14:23;;;;;;;7.70;5.50;;;;;;;19.39;68.33;100967.94;4983131;28;20026;-68
2023/08/31 08:16:49;;;;;;;8.23;5.72;;;;;;;19.31;72.37;100962.13;4997435;28;20080;-68
2023/08/31 08:19:21;;;;;;;8.50;5.38;;;;;;;19.29;69.86;100971.97;5015535;28;20029;-67
2023/08/31 08:21:46;;;;;;;7.03;5.40;;;;;;;19.21;69.98;100972.34;5017060;28;20381;-68
2023/08/31 08:24:12;;;;;;;8.27;5.00;;;;;;;19.25;69.95;100973.94;5011669;28;20131;-67
2023/08/31 08:26:37;;;;;;;7.75;5.38;;;;;;;19.01;70.60;100970.59;5035662;28;20029;-68
2023/08/31 08:29:02;;;;;;;6.43;5.13;;;;;;;18.81;70.03;100971.44;5034401;28;20091;-68
2023/08/31 08:31:28;;;;;;;8.77;5.03;;;;;;;18.88;69.74;100975.59;4998230;28;20026;-68
2023/08/31 08:33:53;;;;;;;7.22;5.43;;;;;;;18.82;72.28;100975.81;5030852;28;20033;-67
2023/08/31 08:36:19;;;;;;;9.80;5.82;;;;;;;18.92;72.42;100982.47;5015314;28;20464;-68
2023/08/31 08:38:44;;;;;;;9.25;5.80;;;;;;;18.93;71.52;100973.56;4995891;28;20030;-68
2023/08/31 08:41:11;;;;;;;8.10;5.32;;;;;;;19.00;73.19;100979.47;5038638;28;20045;-68
2023/08/31 08:43:38;;;;;;;11.05;5.47;;;;;;;18.89;71.12;100979.94;5004826;28;20052;-67
2023/08/31 08:46:05;;;;;;;8.48;5.65;;;;;;;18.96;72.58;100983.19;5047283;28;20329;-67
2023/08/31 08:48:34;;;;;;;6.63;5.35;;;;;;;19.07;74.43;100980.06;5031838;28;20025;-67
2023/08/31 08:51:02;;;;;;;8.00;5.18;;;;;;;19.13;70.54;100988.59;5050503;28;20369;-68
2023/08/31 08:53:28;;;;;;;8.18;5.13;;;;;;;19.00;72.09;100990.09;5017082;28;20350;-68
2023/08/31 08:55:53;;;;;;;6.70;5.00;;;;;;;19.16;71.51;100993.78;5028553;28;20040;-67
2023/08/31 08:58:18;;;;;;;9.80;5.47;;;;;;;19.22;71.01;100992.63;5033701;28;20060;-67
2023/08/31 09:00:46;;;;;;;7.85;5.32;;;;;;;19.40;72.89;100990.94;5016088;28;20025;-68
2023/08/31 09:03:11;;;;;;;8.50;4.80;;;;;;;19.46;71.04;100981.81;5016091;28;20033;-68
2023/08/31 09:05:38;;;;;;;6.82;4.53;;;;;;;19.43;70.32;100981.97;5015126;28;20120;-68
2023/08/31 09:08:09;;;;;;;8.02;4.68;;;;;;;19.26;66.22;100986.25;5015262;28;20044;-68
2023/08/31 09:10:44;;;;;;;7.05;4.50;;;;;;;19.34;67.67;100993.88;5013779;28;20032;-67
2023/08/31 09:13:17;;;;;;;9.02;4.55;;;;;;;19.42;68.62;100990.88;5050200;28;20021;-68
2023/08/31 09:15:45;;;;;;;7.40;4.47;;;;;;;19.45;67.65;100980.09;5030870;28;20025;-67
2023/08/31 09:18:24;;;;;;;8.50;4.63;;;;;;;19.46;67.74;100987.13;5036299;28;20033;-67
2023/08/31 09:20:50;;;;;;;7.22;4.78;;;;;;;19.44;68.50;100989.00;5044751;28;20046;-68
2023/08/31 09:23:17;;;;;;;8.38;4.60;;;;;;;19.22;67.34;100995.28;5020805;28;20121;-68
2023/08/31 09:25:44;;;;;;;6.28;4.03;;;;;;;19.36;68.38;100997.31;5021266;28;20029;-67
2023/08/31 09:28:11;;;;;;;8.00;4.43;;;;;;;19.32;67.22;101001.06;5026200;28;20105;-67
2023/08/31 09:30:37;;;;;;;6.38;3.85;;;;;;;19.03;66.06;100998.78;5025931;28;20094;-68
2023/08/31 09:33:23;;;;;;;7.70;4.80;;;;;;;19.04;67.81;100997.84;5052274;28;20166;-67
2023/08/31 09:35:54;;;;;;;7.07;4.55;;;;;;;18.97;67.37;101004.38;5011938;28;20076;-67
2023/08/31 09:38:20;;;;;;;8.23;5.00;;;;;;;18.99;67.13;100999.88;5033260;28;20021;-67
2023/08/31 09:40:46;;;;;;;6.53;4.68;;;;;;;19.23;67.84;100997.03;5020749;28;20043;-71
2023/08/31 09:43:17;;;;;;;8.20;4.72;;;;;;;19.10;65.93;101006.50;4980381;28;20030;-71
2023/08/31 09:45:43;;;;;;;5.18;4.03;;;;;;;19.13;65.08;100999.22;5039201;28;20029;-71
2023/08/31 09:48:11;;;;;;;7.47;5.05;;;;;;;19.35;66.33;101001.78;4996416;28;20034;-70
2023/08/31 09:50:38;;;;;;;7.55;4.80;;;;;;;19.54;67.65;101000.94;5018169;28;20037;-70
2023/08/31 09:53:05;;;;;;;6.65;4.10;;;;;;;19.58;68.23;101007.81;5028521;28;20029;-71
2023/08/31 09:55:32;;;;;;;7.63;5.15;;;;;;;19.63;65.68;100997.84;5030089;28;20507;-71
2023/08/31 09:58:00;;;;;;;6.85;4.63;;;;;;;19.53;66.63;101000.06;4996481;28;20033;-70
2023/08/31 10:00:36;;;;;;;6.10;4.53;;;;;;;19.99;67.93;101005.00;5065368;28;20108;-69
2023/08/31 10:03:05;;;;;;;7.95;5.13;;;;;;;19.93;65.34;101004.47;5050467;28;20377;-70
2023/08/31 10:05:32;;;;;;;6.50;4.43;;;;;;;20.26;66.36;101012.59;5044268;28;20013;-70
2023/08/31 10:07:59;;;;;;;8.00;4.55;;;;;;;20.38;64.56;101019.94;5046146;28;20036;-71
2023/08/31 10:10:29;;;;;;;6.43;3.88;;;;;;;20.19;61.45;101013.81;5019292;28;20054;-71
2023/08/31 10:12:56;;;;;;;6.78;3.50;;;;;;;20.28;62.32;101016.00;5035358;28;20120;-71
2023/08/31 10:15:22;;;;;;;7.43;4.13;;;;;;;19.90;61.52;101013.44;5045486;28;20424;-72
2023/08/31 10:17:47;;;;;;;5.88;4.10;;;;;;;19.83;61.22;101004.91;5041787;28;20052;-72
2023/08/31 10:20:16;;;;;;;7.90;4.72;;;;;;;19.65;64.47;101005.72;5016504;28;20516;-70
2023/08/31 10:22:42;;;;;;;6.97;3.95;;;;;;;19.59;64.79;101003.38;5066243;28;20028;-71
2023/08/31 10:25:08;;;;;;;6.90;4.35;;;;;;;19.39;64.64;101014.00;5046062;28;20112;-67
2023/08/31 10:27:50;;;;;;;9.10;4.53;;;;;;;19.82;64.20;101004.97;5048893;28;20036;-72
2023/08/31 10:30:26;;;;;;;6.80;3.90;;;;;;;19.92;63.65;101003.59;5017707;28;20028;-72
2023/08/31 10:33:10;;;;;;;4.82;2.72;;;;;;;20.04;61.04;101000.34;5047905;28;20111;-71
2023/08/31 10:35:48;;;;;;;7.80;3.33;;;;;;;20.10;61.29;100992.97;5034102;28;20026;-71
2023/08/31 10:38:24;;;;;;;6.32;3.63;;;;;;;20.21;60.80;100996.84;5025398;28;20025;-71
2023/08/31 10:41:09;;;;;;;6.95;3.50;;;;;;;20.13;61.10;100990.16;5031982;28;20014;-71
2023/08/31 10:43:57;;;;;;;5.47;2.92;;;;;;;20.13;60.88;100995.47;5007992;28;20033;-71
2023/08/31 10:46:28;;;;;;;6.85;3.53;;;;;;;20.00;59.21;100989.94;5048587;28;20095;-70
2023/08/31 10:48:58;;;;;;;5.25;3.25;;;;;;;20.05;61.78;100996.72;5040976;28;20116;-71
2023/08/31 10:51:25;;;;;;;5.55;3.00;;;;;;;19.90;56.94;100989.50;5014920;28;20056;-68
2023/08/31 10:53:50;;;;;;;6.60;3.65;;;;;;;19.89;59.49;100985.97;4998623;28;20033;-68
2023/08/31 10:56:18;;;;;;;4.97;3.40;;;;;;;19.83;62.18;100993.41;5019450;28;20046;-68
2023/08/31 10:58:58;;;;;;;6.60;3.13;;;;;;;19.86;60.21;100985.28;5014004;28;20056;-67
2023/08/31 11:01:53;;;;;;;5.10;3.05;;;;;;;20.04;61.04;100978.19;5036539;28;20034;-67
2023/08/31 11:04:19;;;;;;;5.65;2.90;;;;;;;19.96;58.47;100980.38;5028002;28;20033;-67
2023/08/31 11:06:44;;;;;;;4.80;2.50;;;;;;;20.19;61.77;100989.88;4994575;28;20045;-68
2023/08/31 11:09:21;;;;;;;6.03;3.22;;;;;;;20.09;58.09;100978.81;5041543;28;20556;-67
2023/08/31 11:11:48;;;;;;;8.48;2.95;;;;;;;19.93;57.54;100977.88;5013829;28;20033;-67
2023/08/31 11:14:14;;;;;;;5.35;3.50;;;;;;;20.05;58.93;100982.56;5005496;28;20029;-67
2023/08/31 11:16:39;;;;;;;6.70;3.45;;;;;;;20.25;62.14;100989.56;4994675;28;20037;-67
2023/08/31 11:19:05;;;;;;;6.25;3.10;;;;;;;20.25;57.98;100990.41;5001347;28;20100;-67
2023/08/31 11:21:31;;;;;;;5.68;3.40;;;;;;;20.04;58.39;100983.50;4994890;28;20064;-68
2023/08/31 11:23:58;;;;;;;6.45;3.90;;;;;;;19.97;61.12;100990.94;4991883;28;20034;-67
2023/08/31 11:26:29;;;;;;;5.93;3.20;;;;;;;19.85;60.82;100988.88;5014522;28;20025;-67